Time;durP1;ratioP1;P1;durP2;ratioP2;P2;SDS_P1;SDS_P2;PMS_P1;PMS_P2;Temp;Humidity;BMP_temperature;BMP_pressure;BME280_temperature;BME280_humidity;BME280_pressure;Samples;Min_cycle;Max_cycle;Signal;HPM_P1;HPM_P2
2023/02/04 00:01:56;;;;;;;;;;;9.60;99.90;;;;;;5054602;28;20007;-81
2023/02/04 00:04:21;;;;;;;;;;;9.60;99.90;;;;;;5036361;28;20378;-81
2023/02/04 00:06:47;;;;;;;;;;;9.60;99.90;;;;;;5034921;28;19996;-80
2023/02/04 00:09:12;;;;;;;;;;;9.50;99.90;;;;;;5034691;28;19917;-80
2023/02/04 00:11:38;;;;;;;;;;;9.60;99.90;;;;;;5054459;28;19916;-81
2023/02/04 00:14:03;;;;;;;;;;;9.70;99.90;;;;;;5036355;28;20362;-81
2023/02/04 00:16:28;;;;;;;;;;;9.60;99.90;;;;;;5036115;28;19909;-81
2023/02/04 00:18:54;;;;;;;;;;;9.60;99.90;;;;;;5035863;28;19909;-81
2023/02/04 00:21:19;;;;;;;;;;;9.60;99.90;;;;;;5052786;28;20004;-81
2023/02/04 00:23:45;;;;;;;;;;;9.50;99.90;;;;;;5052408;28;19909;-80
2023/02/04 00:26:10;;;;;;;;;;;9.50;99.90;;;;;;5035385;28;19913;-80
2023/02/04 00:28:36;;;;;;;;;;;9.40;99.90;;;;;;5053332;28;19917;-81
2023/02/04 00:31:01;;;;;;;;;;;9.40;99.90;;;;;;5035071;28;19909;-81
2023/02/04 00:33:27;;;;;;;;;;;9.40;99.90;;;;;;5053130;28;20332;-80
2023/02/04 00:35:53;;;;;;;;;;;9.40;99.90;;;;;;5052950;28;19998;-81
2023/02/04 00:38:18;;;;;;;;;;;9.40;99.90;;;;;;5053067;28;19908;-81
2023/02/04 00:40:44;;;;;;;;;;;9.40;99.90;;;;;;5035000;28;19909;-81
2023/02/04 00:43:09;;;;;;;;;;;9.40;99.90;;;;;;5035052;28;19913;-80
2023/02/04 00:45:35;;;;;;;;;;;9.40;99.90;;;;;;5035307;28;20358;-81
2023/02/04 00:48:00;;;;;;;;;;;9.40;99.90;;;;;;5053060;28;19913;-80
2023/02/04 00:50:26;;;;;;;;;;;9.50;99.90;;;;;;5053446;28;19919;-80
2023/02/04 00:52:51;;;;;;;;;;;9.50;99.90;;;;;;5053221;28;19908;-80
2023/02/04 00:55:17;;;;;;;;;;;9.50;99.90;;;;;;5053170;28;19916;-80
2023/02/04 00:57:50;;;;;;;;;;;9.40;99.90;;;;;;5055377;28;19920;-80
2023/02/04 01:00:16;;;;;;;;;;;9.40;99.90;;;;;;5056706;28;19916;-80
2023/02/04 01:02:41;;;;;;;;;;;9.40;99.90;;;;;;5055746;28;19908;-80
2023/02/04 01:05:07;;;;;;;;;;;9.40;99.90;;;;;;5057157;28;19909;-81
2023/02/04 01:07:33;;;;;;;;;;;9.50;99.90;;;;;;5061947;28;19913;-81
2023/02/04 01:09:59;;;;;;;;;;;9.40;99.90;;;;;;5058367;28;20317;-81
2023/02/04 01:12:26;;;;;;;;;;;9.40;99.90;;;;;;5059029;28;20287;-81
2023/02/04 01:14:52;;;;;;;;;;;9.40;99.90;;;;;;5057880;28;19909;-81
2023/02/04 01:17:18;;;;;;;;;;;9.30;99.90;;;;;;5058729;28;20008;-81
2023/02/04 01:19:44;;;;;;;;;;;9.40;99.90;;;;;;5058561;28;19932;-81
2023/02/04 01:22:09;;;;;;;;;;;9.30;99.90;;;;;;5039622;28;19909;-81
2023/02/04 01:24:35;;;;;;;;;;;9.40;99.90;;;;;;5039928;28;19915;-80
2023/02/04 01:27:00;;;;;;;;;;;9.30;99.90;;;;;;5057782;28;19917;-82
2023/02/04 01:29:26;;;;;;;;;;;9.30;99.90;;;;;;5058350;28;20359;-83
2023/02/04 01:31:51;;;;;;;;;;;9.30;99.90;;;;;;5070282;28;19995;-82
2023/02/04 01:34:17;;;;;;;;;;;9.30;99.90;;;;;;5049748;28;19916;-82
2023/02/04 01:36:42;;;;;;;;;;;9.30;99.90;;;;;;5066263;28;20426;-81
2023/02/04 01:39:11;;;;;;;;;;;9.30;99.90;;;;;;5073188;28;19960;-82
2023/02/04 01:41:36;;;;;;;;;;;9.30;99.90;;;;;;5051047;28;20285;-82
2023/02/04 01:44:04;;;;;;;;;;;9.40;99.90;;;;;;5076667;28;19912;-83
2023/02/04 01:46:30;;;;;;;;;;;9.40;99.90;;;;;;5077406;28;19915;-81
2023/02/04 01:48:55;;;;;;;;;;;9.40;99.90;;;;;;5058718;28;19960;-82
2023/02/04 01:51:25;;;;;;;;;;;9.40;99.90;;;;;;5076649;28;19909;-82
2023/02/04 01:53:51;;;;;;;;;;;9.40;99.90;;;;;;5071001;28;19915;-83
2023/02/04 01:56:19;;;;;;;;;;;9.40;99.90;;;;;;5038391;28;19908;-83
2023/02/04 01:58:45;;;;;;;;;;;9.40;99.90;;;;;;5056113;28;19915;-81
2023/02/04 02:01:12;;;;;;;;;;;9.40;99.90;;;;;;5055476;28;19909;-82
2023/02/04 02:03:38;;;;;;;;;;;9.40;99.90;;;;;;5056537;28;20520;-83
2023/02/04 02:06:03;;;;;;;;;;;9.40;99.90;;;;;;5036929;28;19913;-81
2023/02/04 02:08:29;;;;;;;;;;;9.40;99.90;;;;;;5054375;28;19967;-82
2023/02/04 02:10:54;;;;;;;;;;;9.40;99.90;;;;;;5055485;28;19908;-81
2023/02/04 02:13:20;;;;;;;;;;;9.40;99.90;;;;;;5055500;28;19915;-82
2023/02/04 02:15:46;;;;;;;;;;;9.30;99.90;;;;;;5037449;28;19995;-82
2023/02/04 02:18:11;;;;;;;;;;;9.30;99.90;;;;;;5037253;28;19909;-82
2023/02/04 02:20:37;;;;;;;;;;;9.20;99.90;;;;;;5054878;28;20062;-80
2023/02/04 02:23:23;;;;;;;;;;;9.20;99.90;;;;;;5053860;28;20302;-81
2023/02/04 02:25:49;;;;;;;;;;;9.20;99.90;;;;;;5054268;28;19969;-81
2023/02/04 02:28:16;;;;;;;;;;;9.30;99.90;;;;;;5053820;28;20351;-81
2023/02/04 02:30:44;;;;;;;;;;;9.30;99.90;;;;;;5053975;28;20122;-82
2023/02/04 02:33:13;;;;;;;;;;;9.40;99.90;;;;;;5053811;28;19909;-81
2023/02/04 02:35:42;;;;;;;;;;;9.40;99.90;;;;;;5054326;28;19968;-82
2023/02/04 02:38:08;;;;;;;;;;;9.30;99.90;;;;;;5060648;28;19909;-82
2023/02/04 02:40:34;;;;;;;;;;;9.30;99.90;;;;;;5059842;28;20349;-83
2023/02/04 02:42:59;;;;;;;;;;;9.30;99.90;;;;;;5040256;28;19909;-82
2023/02/04 02:45:26;;;;;;;;;;;9.30;99.90;;;;;;5056959;28;19976;-83
2023/02/04 02:47:51;;;;;;;;;;;9.30;99.90;;;;;;5056070;28;19913;-81
2023/02/04 02:50:19;;;;;;;;;;;9.30;99.90;;;;;;5058120;28;20275;-83
2023/02/04 02:52:45;;;;;;;;;;;9.30;99.90;;;;;;5056317;28;19909;-83
2023/02/04 02:55:15;;;;;;;;;;;9.20;99.90;;;;;;5056572;28;20003;-82
2023/02/04 02:57:40;;;;;;;;;;;9.20;99.90;;;;;;5039079;28;19913;-82
2023/02/04 03:00:13;;;;;;;;;;;9.20;99.90;;;;;;5056316;28;20030;-83
2023/02/04 03:02:39;;;;;;;;;;;9.20;99.90;;;;;;5038188;28;19909;-83
2023/02/04 03:05:05;;;;;;;;;;;9.30;99.90;;;;;;5055155;28;20008;-83
2023/02/04 03:07:30;;;;;;;;;;;9.20;99.90;;;;;;5055371;28;20354;-83
2023/02/04 03:09:56;;;;;;;;;;;9.20;99.90;;;;;;5055731;28;19948;-83
2023/02/04 03:12:21;;;;;;;;;;;9.10;99.90;;;;;;5055710;28;19991;-83
2023/02/04 03:14:47;;;;;;;;;;;9.10;99.90;;;;;;5037660;28;19952;-82
2023/02/04 03:17:12;;;;;;;;;;;9.20;99.90;;;;;;5055298;28;19913;-82
2023/02/04 03:19:38;;;;;;;;;;;9.10;99.90;;;;;;5054259;28;19908;-82
2023/02/04 03:22:04;;;;;;;;;;;9.00;99.90;;;;;;5055359;28;20394;-83
2023/02/04 03:24:30;;;;;;;;;;;9.10;99.90;;;;;;5036858;28;19932;-83
2023/02/04 03:26:55;;;;;;;;;;;9.10;99.90;;;;;;5054723;28;19909;-83
2023/02/04 03:29:21;;;;;;;;;;;9.10;99.90;;;;;;5054549;28;19948;-81
2023/02/04 03:31:46;;;;;;;;;;;9.00;99.90;;;;;;5054410;28;20316;-82
2023/02/04 03:34:12;;;;;;;;;;;9.00;99.90;;;;;;5054082;28;19920;-82
2023/02/04 03:36:37;;;;;;;;;;;9.00;99.90;;;;;;5054445;28;20325;-82
2023/02/04 03:39:03;;;;;;;;;;;8.80;99.90;;;;;;5053867;28;19909;-81
2023/02/04 03:41:28;;;;;;;;;;;8.90;99.90;;;;;;5053864;28;19955;-82
2023/02/04 03:43:55;;;;;;;;;;;8.90;99.90;;;;;;5036259;28;19967;-82
2023/02/04 03:46:22;;;;;;;;;;;9.00;99.90;;;;;;5035685;28;20458;-82
2023/02/04 03:48:48;;;;;;;;;;;8.90;99.90;;;;;;5054037;28;19913;-81
2023/02/04 03:51:13;;;;;;;;;;;8.90;99.90;;;;;;5053397;28;19916;-82
2023/02/04 03:53:39;;;;;;;;;;;8.90;99.90;;;;;;5035898;28;19916;-82
2023/02/04 03:56:04;;;;;;;;;;;9.00;99.90;;;;;;5053332;28;19909;-82
2023/02/04 03:58:30;;;;;;;;;;;9.00;99.90;;;;;;5035771;28;19912;-81
2023/02/04 04:00:55;;;;;;;;;;;9.00;99.90;;;;;;5053419;28;19909;-81
2023/02/04 04:03:20;;;;;;;;;;;9.00;99.90;;;;;;5053624;28;19909;-81
2023/02/04 04:05:46;;;;;;;;;;;8.90;99.90;;;;;;5053130;28;19908;-81
2023/02/04 04:08:11;;;;;;;;;;;8.80;99.90;;;;;;5052409;28;19923;-81
2023/02/04 04:10:37;;;;;;;;;;;8.80;99.90;;;;;;5037701;28;19967;-81
2023/02/04 04:13:02;;;;;;;;;;;8.80;99.90;;;;;;5039722;28;19916;-83
2023/02/04 04:15:28;;;;;;;;;;;8.80;99.90;;;;;;5055274;28;20376;-82
2023/02/04 04:17:53;;;;;;;;;;;8.70;99.90;;;;;;5055694;28;19909;-83
2023/02/04 04:20:19;;;;;;;;;;;8.70;99.90;;;;;;5037077;28;20011;-81
2023/02/04 04:22:44;;;;;;;;;;;8.70;99.90;;;;;;5051924;28;19909;-82
2023/02/04 04:25:10;;;;;;;;;;;8.70;99.90;;;;;;5053046;28;19970;-82
2023/02/04 04:27:35;;;;;;;;;;;8.70;99.90;;;;;;5036639;28;19923;-83
2023/02/04 04:30:01;;;;;;;;;;;8.70;99.90;;;;;;5054756;28;19909;-81
2023/02/04 04:32:27;;;;;;;;;;;8.80;99.90;;;;;;5040745;28;19915;-83
2023/02/04 04:34:52;;;;;;;;;;;8.60;99.90;;;;;;5058365;28;19908;-83
2023/02/04 04:37:18;;;;;;;;;;;8.60;99.90;;;;;;5039888;28;19909;-82
2023/02/04 04:39:43;;;;;;;;;;;8.70;99.90;;;;;;5039788;28;20444;-82
2023/02/04 04:42:09;;;;;;;;;;;8.70;99.90;;;;;;5055870;28;19962;-81
2023/02/04 04:44:34;;;;;;;;;;;8.70;99.90;;;;;;5038312;28;19908;-81
2023/02/04 04:47:00;;;;;;;;;;;8.80;99.90;;;;;;5057368;28;20405;-81
2023/02/04 04:49:25;;;;;;;;;;;8.80;99.90;;;;;;5057311;28;19917;-81
2023/02/04 04:51:51;;;;;;;;;;;8.80;99.90;;;;;;5057051;28;19909;-82
2023/02/04 04:54:16;;;;;;;;;;;8.80;99.90;;;;;;5057567;28;19955;-82
2023/02/04 04:56:41;;;;;;;;;;;8.70;99.90;;;;;;5057053;28;19991;-81
2023/02/04 04:59:07;;;;;;;;;;;8.70;99.90;;;;;;5056684;28;20350;-81
2023/02/04 05:01:33;;;;;;;;;;;8.70;99.90;;;;;;5038960;28;19909;-82
2023/02/04 05:03:58;;;;;;;;;;;8.70;99.90;;;;;;5056743;28;19962;-82
2023/02/04 05:06:24;;;;;;;;;;;8.80;99.90;;;;;;5038467;28;19909;-82
2023/02/04 05:08:52;;;;;;;;;;;8.80;99.90;;;;;;5056651;28;19956;-81
2023/02/04 05:11:18;;;;;;;;;;;8.80;99.90;;;;;;5056085;28;19923;-81
2023/02/04 05:13:43;;;;;;;;;;;8.80;99.90;;;;;;5056962;28;19912;-82
2023/02/04 05:16:12;;;;;;;;;;;8.80;99.90;;;;;;5055924;28;19913;-82
2023/02/04 05:18:38;;;;;;;;;;;8.80;99.90;;;;;;5055737;28;19909;-81
2023/02/04 05:21:03;;;;;;;;;;;8.80;99.90;;;;;;5037702;28;19916;-80
2023/02/04 05:23:29;;;;;;;;;;;8.80;99.90;;;;;;5055995;28;19915;-82
2023/02/04 05:25:54;;;;;;;;;;;8.80;99.90;;;;;;5038270;28;19913;-83
2023/02/04 05:28:20;;;;;;;;;;;8.80;99.90;;;;;;5055499;28;19963;-81
2023/02/04 05:30:45;;;;;;;;;;;8.70;99.90;;;;;;5064451;28;19916;-82
2023/02/04 05:33:11;;;;;;;;;;;8.70;99.90;;;;;;5067558;28;19915;-82
2023/02/04 05:35:36;;;;;;;;;;;8.70;99.90;;;;;;5076260;28;19932;-82
2023/02/04 05:38:02;;;;;;;;;;;8.60;99.90;;;;;;5076335;28;19951;-81
2023/02/04 05:40:27;;;;;;;;;;;8.50;99.90;;;;;;5047306;28;19963;-81
2023/02/04 05:42:53;;;;;;;;;;;8.50;99.90;;;;;;5040998;28;19999;-81
2023/02/04 05:45:18;;;;;;;;;;;8.50;99.90;;;;;;5059325;28;19915;-82
2023/02/04 05:47:43;;;;;;;;;;;8.50;99.90;;;;;;5058341;28;19909;-82
2023/02/04 05:50:09;;;;;;;;;;;8.50;99.90;;;;;;5038268;28;19932;-81
2023/02/04 05:52:35;;;;;;;;;;;8.50;99.90;;;;;;5055425;28;20023;-82
2023/02/04 05:55:00;;;;;;;;;;;8.50;99.90;;;;;;5037592;28;20385;-82
2023/02/04 05:57:26;;;;;;;;;;;8.50;99.90;;;;;;5056307;28;19909;-82
2023/02/04 05:59:51;;;;;;;;;;;8.50;99.90;;;;;;5038274;28;19913;-81
2023/02/04 06:02:17;;;;;;;;;;;8.50;99.90;;;;;;5055434;28;19909;-82
2023/02/04 06:04:42;;;;;;;;;;;8.50;99.90;;;;;;5038306;28;19963;-81
2023/02/04 06:07:08;;;;;;;;;;;8.60;99.90;;;;;;5056355;28;19919;-83
2023/02/04 06:09:33;;;;;;;;;;;8.60;99.90;;;;;;5055991;28;19913;-82
2023/02/04 06:11:59;;;;;;;;;;;8.60;99.90;;;;;;5056222;28;19909;-82
2023/02/04 06:14:24;;;;;;;;;;;8.70;99.90;;;;;;5055935;28;19908;-83
2023/02/04 06:16:50;;;;;;;;;;;8.70;99.90;;;;;;5038028;28;19909;-82
2023/02/04 06:19:15;;;;;;;;;;;8.70;99.90;;;;;;5038050;28;19909;-81
2023/02/04 06:21:41;;;;;;;;;;;8.70;99.90;;;;;;5038231;28;20003;-82
2023/02/04 06:24:06;;;;;;;;;;;8.70;99.90;;;;;;5038974;28;19909;-83
2023/02/04 06:26:32;;;;;;;;;;;8.70;99.90;;;;;;5038126;28;20393;-81
2023/02/04 06:28:57;;;;;;;;;;;8.70;99.90;;;;;;5038819;28;20015;-82
2023/02/04 06:31:23;;;;;;;;;;;8.70;99.90;;;;;;5055678;28;19915;-82
2023/02/04 06:33:48;;;;;;;;;;;8.70;99.90;;;;;;5055349;28;19909;-82
2023/02/04 06:36:13;;;;;;;;;;;8.70;99.90;;;;;;5037498;28;19922;-83
2023/02/04 06:38:39;;;;;;;;;;;8.70;99.90;;;;;;5055493;28;19915;-82
2023/02/04 06:41:04;;;;;;;;;;;8.70;99.90;;;;;;5055046;28;19996;-82
2023/02/04 06:43:30;;;;;;;;;;;8.60;99.90;;;;;;5054936;28;19930;-82
2023/02/04 06:45:55;;;;;;;;;;;8.60;99.90;;;;;;5054568;28;19912;-81
2023/02/04 06:48:21;;;;;;;;;;;8.70;99.90;;;;;;5036380;28;19936;-82
2023/02/04 06:50:46;;;;;;;;;;;8.70;99.90;;;;;;5036568;28;19909;-82
2023/02/04 06:53:12;;;;;;;;;;;8.70;99.90;;;;;;5036737;28;20358;-82
2023/02/04 06:55:37;;;;;;;;;;;8.70;99.90;;;;;;5053331;28;19952;-82
2023/02/04 06:58:03;;;;;;;;;;;8.70;99.90;;;;;;5036518;28;19908;-82
2023/02/04 07:00:30;;;;;;;;;;;8.70;99.90;;;;;;5036572;28;19916;-82
2023/02/04 07:02:57;;;;;;;;;;;8.80;99.90;;;;;;5054032;28;19916;-83
2023/02/04 07:05:23;;;;;;;;;;;8.80;99.90;;;;;;5036676;28;19920;-81
2023/02/04 07:07:48;;;;;;;;;;;8.80;99.90;;;;;;5053993;28;19909;-81
2023/02/04 07:10:15;;;;;;;;;;;8.80;99.90;;;;;;5053932;28;19959;-81
2023/02/04 07:12:41;;;;;;;;;;;8.80;99.90;;;;;;5053957;28;19909;-81
2023/02/04 07:15:06;;;;;;;;;;;8.80;99.90;;;;;;5054400;28;19913;-81
2023/02/04 07:17:32;;;;;;;;;;;8.80;99.90;;;;;;5037218;28;19912;-83
2023/02/04 07:19:57;;;;;;;;;;;8.80;99.90;;;;;;5037370;28;20286;-82
2023/02/04 07:22:23;;;;;;;;;;;8.80;99.90;;;;;;5054442;28;19916;-82
2023/02/04 07:24:48;;;;;;;;;;;8.80;99.90;;;;;;5036196;28;19913;-81
2023/02/04 07:27:14;;;;;;;;;;;8.80;99.90;;;;;;5054491;28;19968;-81
2023/02/04 07:29:39;;;;;;;;;;;8.80;99.90;;;;;;5053666;28;19995;-82
2023/02/04 07:32:05;;;;;;;;;;;8.70;99.90;;;;;;5071914;28;20402;-82
2023/02/04 07:34:30;;;;;;;;;;;8.70;99.90;;;;;;5066011;28;19948;-81
2023/02/04 07:36:56;;;;;;;;;;;8.80;99.90;;;;;;5055901;28;19912;-81
2023/02/04 07:39:21;;;;;;;;;;;8.80;99.90;;;;;;5057402;28;19915;-82
2023/02/04 07:41:47;;;;;;;;;;;8.80;99.90;;;;;;5073634;28;19954;-83
2023/02/04 07:44:12;;;;;;;;;;;8.90;99.90;;;;;;5073558;28;19909;-82
2023/02/04 07:46:37;;;;;;;;;;;8.90;99.90;;;;;;5055945;28;19908;-82
2023/02/04 07:49:03;;;;;;;;;;;9.00;99.90;;;;;;5073829;28;20286;-83
2023/02/04 07:51:28;;;;;;;;;;;9.10;99.90;;;;;;5055958;28;19938;-82
2023/02/04 07:53:54;;;;;;;;;;;9.10;99.90;;;;;;5055211;28;19909;-81
2023/02/04 07:56:20;;;;;;;;;;;9.10;99.90;;;;;;5073309;28;19915;-81
2023/02/04 07:58:45;;;;;;;;;;;9.10;99.90;;;;;;5055670;28;19908;-81
2023/02/04 08:01:11;;;;;;;;;;;9.10;99.90;;;;;;5073255;28;20011;-82
2023/02/04 08:03:36;;;;;;;;;;;9.20;99.90;;;;;;5073122;28;19944;-81
2023/02/04 08:06:02;;;;;;;;;;;9.30;99.90;;;;;;5073076;28;19912;-81
2023/02/04 08:08:27;;;;;;;;;;;9.40;99.90;;;;;;5073378;28;19912;-82
2023/02/04 08:10:53;;;;;;;;;;;9.50;99.90;;;;;;5072893;28;19912;-80
2023/02/04 08:13:18;;;;;;;;;;;9.60;99.90;;;;;;5055272;28;20379;-81
2023/02/04 08:15:44;;;;;;;;;;;9.60;99.90;;;;;;5055411;28;19913;-81
2023/02/04 08:18:09;;;;;;;;;;;9.70;99.90;;;;;;5073482;28;19932;-83
2023/02/04 08:20:35;;;;;;;;;;;9.80;99.90;;;;;;5073213;28;20290;-81
2023/02/04 08:23:00;;;;;;;;;;;9.80;99.90;;;;;;5054821;28;19909;-82
2023/02/04 08:25:27;;;;;;;;;;;9.90;99.90;;;;;;5073109;28;20010;-82
2023/02/04 08:27:53;;;;;;;;;;;10.00;99.90;;;;;;5054672;28;19975;-82
2023/02/04 08:30:18;;;;;;;;;;;10.10;99.90;;;;;;5073146;28;19909;-81
2023/02/04 08:32:44;;;;;;;;;;;10.20;99.90;;;;;;5073152;28;20427;-83
2023/02/04 08:35:11;;;;;;;;;;;10.30;99.90;;;;;;5054988;28;19958;-82
2023/02/04 08:37:36;;;;;;;;;;;10.30;99.90;;;;;;5072927;28;20350;-82
2023/02/04 08:40:01;;;;;;;;;;;10.30;99.90;;;;;;5054795;28;20016;-81
2023/02/04 08:42:28;;;;;;;;;;;10.40;99.90;;;;;;5072841;28;20325;-81
2023/02/04 08:44:53;;;;;;;;;;;10.20;99.90;;;;;;5054942;28;19908;-81
2023/02/04 08:47:19;;;;;;;;;;;10.20;99.90;;;;;;5056790;28;20317;-82
2023/02/04 08:49:44;;;;;;;;;;;10.20;99.90;;;;;;5075077;28;19912;-83
2023/02/04 08:52:09;;;;;;;;;;;10.30;99.90;;;;;;5075186;28;20286;-82
2023/02/04 08:54:35;;;;;;;;;;;10.30;99.90;;;;;;5074676;28;19909;-82
2023/02/04 08:57:01;;;;;;;;;;;10.30;99.90;;;;;;5074874;28;19908;-82
2023/02/04 08:59:27;;;;;;;;;;;10.30;99.90;;;;;;5056543;28;20373;-82
2023/02/04 09:01:52;;;;;;;;;;;10.30;99.90;;;;;;5072893;28;19943;-81
2023/02/04 09:04:18;;;;;;;;;;;10.20;99.90;;;;;;5072851;28;19912;-81
2023/02/04 09:06:44;;;;;;;;;;;10.20;99.90;;;;;;5054651;28;19909;-82
2023/02/04 09:09:09;;;;;;;;;;;10.40;99.90;;;;;;5074474;28;20381;-82
2023/02/04 09:11:35;;;;;;;;;;;10.50;99.90;;;;;;5074984;28;19956;-83
2023/02/04 09:14:00;;;;;;;;;;;10.70;99.90;;;;;;5074044;28;19962;-83
2023/02/04 09:16:26;;;;;;;;;;;10.80;99.90;;;;;;5073314;28;19944;-82
2023/02/04 09:18:51;;;;;;;;;;;10.90;99.90;;;;;;5075441;28;20339;-82
2023/02/04 09:21:17;;;;;;;;;;;11.00;99.90;;;;;;5076904;28;19912;-82
2023/02/04 09:23:43;;;;;;;;;;;11.00;99.90;;;;;;5059206;28;19913;-83
2023/02/04 09:26:09;;;;;;;;;;;11.10;99.90;;;;;;5058934;28;19915;-81
2023/02/04 09:28:34;;;;;;;;;;;10.90;99.90;;;;;;5077235;28;19917;-82
2023/02/04 09:31:00;;;;;;;;;;;10.90;99.90;;;;;;5051291;28;19912;-80
2023/02/04 09:33:25;;;;;;;;;;;10.80;99.90;;;;;;5039691;28;19935;-83
2023/02/04 09:35:51;;;;;;;;;;;10.80;99.90;;;;;;5066562;28;20379;-83
2023/02/04 09:38:16;;;;;;;;;;;10.70;99.90;;;;;;5039361;28;19909;-82
2023/02/04 09:40:45;;;;;;;;;;;10.70;99.90;;;;;;5038262;28;20015;-82
2023/02/04 09:43:15;;;;;;;;;;;10.70;99.90;;;;;;5065228;28;19909;-83
2023/02/04 09:45:40;;;;;;;;;;;10.70;99.90;;;;;;5076995;28;19909;-82
2023/02/04 09:48:06;;;;;;;;;;;10.60;99.90;;;;;;5076538;28;20515;-82
2023/02/04 09:50:32;;;;;;;;;;;10.80;99.90;;;;;;5077299;28;19919;-81
2023/02/04 09:52:59;;;;;;;;;;;10.70;99.90;;;;;;5074932;28;19908;-83
2023/02/04 09:55:29;;;;;;;;;;;10.80;99.90;;;;;;5057975;28;19917;-81
2023/02/04 09:57:55;;;;;;;;;;;10.90;99.90;;;;;;5059904;28;19909;-81
2023/02/04 10:00:21;;;;;;;;;;;10.90;99.90;;;;;;5055514;28;19913;-81
2023/02/04 10:02:47;;;;;;;;;;;10.90;99.90;;;;;;5037017;28;20004;-80
2023/02/04 10:05:16;;;;;;;;;;;10.70;99.90;;;;;;5055990;28;19997;-81
2023/02/04 10:07:42;;;;;;;;;;;10.80;99.90;;;;;;5065469;28;19924;-81
2023/02/04 10:10:16;;;;;;;;;;;10.90;99.90;;;;;;5046535;28;20290;-82
2023/02/04 10:12:41;;;;;;;;;;;11.00;99.90;;;;;;5062791;28;20001;-81
2023/02/04 10:15:09;;;;;;;;;;;11.00;99.90;;;;;;5056031;28;19909;-80
2023/02/04 10:17:35;;;;;;;;;;;10.90;99.90;;;;;;5056407;28;20152;-80
2023/02/04 10:20:01;;;;;;;;;;;10.90;99.90;;;;;;5067113;28;19913;-83
2023/02/04 10:22:26;;;;;;;;;;;11.00;99.90;;;;;;5072164;28;19908;-83
2023/02/04 10:24:51;;;;;;;;;;;11.10;99.90;;;;;;5056235;28;19999;-82
2023/02/04 10:27:17;;;;;;;;;;;11.20;99.90;;;;;;5057626;28;19924;-84
2023/02/04 10:29:54;;;;;;;;;;;11.40;99.90;;;;;;5048729;28;19999;-81
2023/02/04 10:32:27;;;;;;;;;;;11.50;99.90;;;;;;5056694;28;19908;-80
2023/02/04 10:34:55;;;;;;;;;;;11.70;99.90;;;;;;5072129;28;20274;-80
2023/02/04 10:37:21;;;;;;;;;;;11.70;99.90;;;;;;5068125;28;20335;-82
2023/02/04 10:39:48;;;;;;;;;;;11.80;99.90;;;;;;5067983;28;19990;-80
2023/02/04 10:42:24;;;;;;;;;;;11.90;99.90;;;;;;5064230;28;20512;-81
2023/02/04 10:44:50;;;;;;;;;;;12.00;99.90;;;;;;5068392;28;20302;-80
2023/02/04 10:47:17;;;;;;;;;;;12.10;99.90;;;;;;5071041;28;19915;-81
2023/02/04 10:49:53;;;;;;;;;;;12.10;99.90;;;;;;5070670;28;19916;-82
2023/02/04 10:52:19;;;;;;;;;;;12.00;99.90;;;;;;5053144;28;20054;-81
2023/02/04 10:54:46;;;;;;;;;;;11.80;99.90;;;;;;5056541;28;19908;-82
2023/02/04 10:57:22;;;;;;;;;;;11.80;99.90;;;;;;5066526;28;20305;-83
2023/02/04 10:59:49;;;;;;;;;;;11.80;99.90;;;;;;5054017;28;20000;-82
2023/02/04 11:02:23;;;;;;;;;;;11.60;99.90;;;;;;5066142;28;19909;-81
2023/02/04 11:04:49;;;;;;;;;;;11.70;99.90;;;;;;5069686;28;19912;-83
2023/02/04 11:07:14;;;;;;;;;;;11.90;99.90;;;;;;5065933;28;19995;-84
2023/02/04 11:09:40;;;;;;;;;;;12.00;99.90;;;;;;5045762;28;19931;-82
2023/02/04 11:12:17;;;;;;;;;;;12.10;99.90;;;;;;5067482;28;20330;-84
2023/02/04 11:14:53;;;;;;;;;;;12.40;99.90;;;;;;5059070;28;20357;-82
2023/02/04 11:17:19;;;;;;;;;;;12.50;99.90;;;;;;5065885;28;20258;-83
2023/02/04 11:19:44;;;;;;;;;;;13.00;99.90;;;;;;5075718;28;19909;-83
2023/02/04 11:22:21;;;;;;;;;;;13.40;99.90;;;;;;5056451;28;20377;-83
2023/02/04 11:24:47;;;;;;;;;;;14.20;99.90;;;;;;5074701;28;19908;-82
2023/02/04 11:27:20;;;;;;;;;;;14.90;99.90;;;;;;5056817;28;20054;-83
2023/02/04 11:29:46;;;;;;;;;;;15.40;99.90;;;;;;5074429;28;19913;-82
2023/02/04 11:32:27;;;;;;;;;;;15.80;99.90;;;;;;5073884;28;19912;-81
2023/02/04 11:34:56;;;;;;;;;;;15.90;99.90;;;;;;5056553;28;19923;-83
2023/02/04 11:37:30;;;;;;;;;;;15.70;99.90;;;;;;5073082;28;19942;-82
2023/02/04 11:39:57;;;;;;;;;;;15.50;99.90;;;;;;5072967;28;19912;-81
2023/02/04 11:42:25;;;;;;;;;;;15.50;99.90;;;;;;5073808;28;19909;-83
2023/02/04 11:44:52;;;;;;;;;;;15.60;99.90;;;;;;5055808;28;19915;-81
2023/02/04 11:47:17;;;;;;;;;;;15.40;99.90;;;;;;5073847;28;19909;-82
2023/02/04 11:49:44;;;;;;;;;;;15.50;99.90;;;;;;5059659;28;19913;-83
2023/02/04 11:52:12;;;;;;;;;;;15.50;99.90;;;;;;5073376;28;19952;-82
2023/02/04 11:54:38;;;;;;;;;;;15.80;99.90;;;;;;5073662;28;19909;-83
2023/02/04 11:57:04;;;;;;;;;;;16.10;99.90;;;;;;5071867;28;20012;-84
2023/02/04 11:59:29;;;;;;;;;;;16.40;99.90;;;;;;5063726;28;19912;-84
2023/02/04 12:02:15;;;;;;;;;;;16.50;99.90;;;;;;5060153;28;19909;-82
2023/02/04 12:04:49;;;;;;;;;;;16.40;99.90;;;;;;5070094;28;19909;-82
2023/02/04 12:07:19;;;;;;;;;;;16.50;99.90;;;;;;5075624;28;19908;-82
2023/02/04 12:09:46;;;;;;;;;;;16.60;99.90;;;;;;5073036;28;19912;-81
2023/02/04 12:12:21;;;;;;;;;;;16.70;99.90;;;;;;5073047;28;19913;-81
2023/02/04 12:14:55;;;;;;;;;;;16.50;99.90;;;;;;5056503;28;20343;-81
2023/02/04 12:17:20;;;;;;;;;;;16.50;99.90;;;;;;5072284;28;19909;-81
2023/02/04 12:19:46;;;;;;;;;;;16.70;99.90;;;;;;5072643;28;19915;-81
2023/02/04 12:22:13;;;;;;;;;;;17.20;99.90;;;;;;5072364;28;20392;-81
2023/02/04 12:24:38;;;;;;;;;;;18.30;99.90;;;;;;5073178;28;19908;-81
2023/02/04 12:27:04;;;;;;;;;;;19.10;99.90;;;;;;5072753;28;20006;-81
2023/02/04 12:29:29;;;;;;;;;;;19.20;99.60;;;;;;5054719;28;19959;-81
2023/02/04 12:31:55;;;;;;;;;;;19.00;98.00;;;;;;5072257;28;19958;-81
2023/02/04 12:34:20;;;;;;;;;;;19.20;98.50;;;;;;5073923;28;20401;-81
2023/02/04 12:36:46;;;;;;;;;;;19.10;98.30;;;;;;5074441;28;19958;-81
2023/02/04 12:39:11;;;;;;;;;;;19.20;98.90;;;;;;5072835;28;19916;-81
2023/02/04 12:41:37;;;;;;;;;;;18.90;99.30;;;;;;5054800;28;19909;-81
2023/02/04 12:44:03;;;;;;;;;;;18.70;96.90;;;;;;5054809;28;19916;-81
2023/02/04 12:46:28;;;;;;;;;;;18.50;96.20;;;;;;5073056;28;20003;-81
2023/02/04 12:48:54;;;;;;;;;;;18.60;98.90;;;;;;5055900;28;20002;-81
2023/02/04 12:51:20;;;;;;;;;;;18.70;97.40;;;;;;5071864;28;19916;-81
2023/02/04 12:53:47;;;;;;;;;;;18.60;97.00;;;;;;5074642;28;19932;-82
2023/02/04 12:56:12;;;;;;;;;;;18.60;97.70;;;;;;5045517;28;19913;-81
2023/02/04 12:58:38;;;;;;;;;;;18.70;97.10;;;;;;5071446;28;19936;-81
2023/02/04 13:01:03;;;;;;;;;;;18.70;96.00;;;;;;5063515;28;19908;-82
2023/02/04 13:03:29;;;;;;;;;;;18.30;95.00;;;;;;5063416;28;20267;-81
2023/02/04 13:05:54;;;;;;;;;;;18.10;95.30;;;;;;5037338;28;19909;-82
2023/02/04 13:08:20;;;;;;;;;;;17.80;96.60;;;;;;5052687;28;19958;-81
2023/02/04 13:10:50;;;;;;;;;;;17.70;96.40;;;;;;5055972;28;19999;-81
2023/02/04 13:13:19;;;;;;;;;;;17.40;97.30;;;;;;5055512;28;19963;-82
2023/02/04 13:15:45;;;;;;;;;;;17.10;97.70;;;;;;5055493;28;20286;-81
2023/02/04 13:18:10;;;;;;;;;;;17.10;99.40;;;;;;5064784;28;19915;-81
2023/02/04 13:20:36;;;;;;;;;;;16.90;99.90;;;;;;5053189;28;20334;-83
2023/02/04 13:23:01;;;;;;;;;;;17.00;99.90;;;;;;5077655;28;19947;-83
2023/02/04 13:25:27;;;;;;;;;;;17.10;99.80;;;;;;5059063;28;19908;-81
2023/02/04 13:27:55;;;;;;;;;;;17.20;99.20;;;;;;5059185;22;19964;-81
2023/02/04 13:30:20;;;;;;;;;;;17.50;98.60;;;;;;5008903;28;19917;-82
2023/02/04 13:32:46;;;;;;;;;;;17.80;97.20;;;;;;5003988;28;20056;-81
2023/02/04 13:35:15;;;;;;;;;;;17.90;96.50;;;;;;4997978;28;19972;-82
2023/02/04 13:37:40;;;;;;;;;;;18.00;97.50;;;;;;4998116;28;19967;-81
2023/02/04 13:40:09;;;;;;;;;;;17.60;97.10;;;;;;4997675;28;20371;-81
2023/02/04 13:42:35;;;;;;;;;;;17.60;98.10;;;;;;4997639;28;19916;-82
2023/02/04 13:45:03;;;;;;;;;;;17.00;99.00;;;;;;4997787;28;19909;-82
2023/02/04 13:47:29;;;;;;;;;;;17.10;99.70;;;;;;5010615;28;19964;-82
2023/02/04 13:49:54;;;;;;;;;;;17.40;98.80;;;;;;5022986;28;19909;-81
2023/02/04 13:52:22;;;;;;;;;;;17.50;98.20;;;;;;5017373;28;19913;-83
2023/02/04 13:54:48;;;;;;;;;;;17.50;98.40;;;;;;5030568;28;19912;-83
2023/02/04 13:57:15;;;;;;;;;;;17.20;97.90;;;;;;5036910;28;19936;-83
2023/02/04 13:59:41;;;;;;;;;;;16.80;99.10;;;;;;5021314;28;19913;-83
2023/02/04 14:02:07;;;;;;;;;;;16.60;99.90;;;;;;5054421;28;19916;-86
2023/02/04 14:04:33;;;;;;;;;;;16.30;99.90;;;;;;5029232;28;19951;-84
2023/02/04 14:06:58;;;;;;;;;;;16.00;99.90;;;;;;5038751;28;19909;-84
2023/02/04 14:09:24;;;;;;;;;;;15.70;99.90;;;;;;5032135;28;20071;-81
2023/02/04 14:11:50;;;;;;;;;;;15.60;99.90;;;;;;5016797;28;20446;-82
2023/02/04 14:14:16;;;;;;;;;;;15.40;99.90;;;;;;5017174;28;20417;-82
2023/02/04 14:16:41;;;;;;;;;;;15.30;99.90;;;;;;5034608;28;19909;-82
2023/02/04 14:19:08;;;;;;;;;;;15.20;99.90;;;;;;5016583;28;19968;-82